Latest Weather Observations for Julia Creek

IDQ60801

Issued at 12:43 pm EST Friday 7 October 2022 (issued every 10 minutes, with the page automatically refreshed every 10 minutes)

About weather observations | Map of weather stations | Latest weather observations for QLD | Other Formats
Station Details ID: 029058 Name: JULIA CREEK AIRPORT Lat: -20.67 Lon: 141.72 Height: 122.5 m
Data from the previous 72 hours. | See also: Recent months at Julia Creek
Date/Time
EST
Temp
°C
App
Temp
°C
Dew
Point
°C
Rel
Hum
%
Delta-T
°C
Wind Press
QNH
hPa
Press
MSL
hPa
Rain since
9am
mm
Dir  Spd
km/h
Gust
km/h
Spd
kts
Gust
kts
07/12:30pm 35.3 33.7 16.1 32 12.2 N 19 28 10 15 1011.4 1010.7 0.0
07/12:00pm 35.6 33.4 15.9 31 12.5 N 22 33 12 18 1012.0 1011.3 0.0
07/11:30am 34.6 31.6 16.9 35 11.4 N 28 37 15 20 1012.4 1011.7 0.0
07/11:00am 33.8 30.2 17.1 37 10.7 N 32 39 17 21 1012.8 1012.1 0.0
07/10:30am 33.7 30.6 17.4 37 10.5 N 30 39 16 21 1013.0 1012.3 0.0
07/10:00am 31.9 28.4 17.8 43 9.1 NNE 33 43 18 23 1013.1 1012.4 0.0
07/09:30am 30.9 27.6 18.3 47 8.1 N 33 41 18 22 1013.3 1012.6 0.0
07/09:00am 29.5 25.8 18.3 51 7.2 NNE 35 43 19 23 1013.2 1012.5 0.0
07/08:30am 28.8 25.7 18.9 55 6.4 NNE 33 41 18 22 1013.2 1012.5 0.0
07/08:00am 27.6 24.7 18.9 59 5.6 NNE 32 41 17 22 1013.0 1012.3 0.0
07/07:30am 26.2 25.3 19.1 65 4.6 NNE 22 30 12 16 1012.7 1012.0 0.0
07/07:00am 24.0 23.8 18.4 71 3.5 NNE 17 20 9 11 1012.3 1011.6 0.0
07/06:30am 21.9 22.0 17.5 76 2.7 NNE 13 15 7 8 1011.9 1011.2 0.0
07/06:00am 22.0 21.5 16.9 73 3.1 NE 15 17 8 9 1011.3 1010.6 0.0
07/05:30am 22.2 22.0 16.7 71 3.4 NNE 13 15 7 8 1011.0 1010.3 0.0
07/05:00am 22.5 22.7 16.8 70 3.5 NNE 11 11 6 6 1010.6 1009.9 0.0
07/04:30am 22.5 23.6 17.0 71 3.4 ENE 7 9 4 5 1010.4 1009.7 0.0
07/04:00am 22.5 22.9 17.2 72 3.3 E 11 15 6 8 1010.4 1009.7 0.0
07/03:30am 22.2 23.0 17.3 74 3.0 SSE 9 13 5 7 1010.3 1009.6 0.0
07/03:00am 21.7 22.7 16.9 74 2.9 SE 7 11 4 6 1010.1 1009.4 0.0
07/02:30am 21.8 22.9 17.2 75 2.8 ESE 7 15 4 8 1010.2 1009.5 0.0
07/02:00am 22.5 25.1 17.6 74 3.1 CALM 0 0 0 0 1010.4 1009.7 0.0
07/01:30am 23.0 25.7 17.7 72 3.3 CALM 0 0 0 0 1010.6 1009.9 0.0
07/01:00am 22.5 25.1 17.4 73 3.2 CALM 0 0 0 0 1010.7 1010.0 0.0
07/12:30am 23.6 25.6 17.8 70 3.6 SE 4 7 2 4 1010.9 1010.2 0.0
07/12:00am 24.9 25.8 17.6 64 4.6 E 9 11 5 6 1011.2 1010.5 0.0
 
Date/Time
EST
Temp
°C
App
Temp
°C
Dew
Point
°C
Rel
Hum
%
Delta-T
°C
Wind Press
QNH
hPa
Press
MSL
hPa
Rain since
9am
mm
Dir  Spd
km/h
Gust
km/h
Spd
kts
Gust
kts
06/11:30pm 25.1 25.4 17.8 64 4.6 ESE 13 13 7 7 1011.5 1010.8 0.0
06/11:00pm 25.2 26.1 18.4 66 4.3 ESE 11 13 6 7 1011.9 1011.2 0.0
06/10:30pm 25.6 25.9 18.0 63 4.8 ESE 13 15 7 8 1012.1 1011.4 0.0
06/10:00pm 26.6 26.3 17.4 57 5.8 ESE 15 15 8 8 1012.1 1011.4 0.0
06/09:30pm 27.1 27.3 17.6 56 6.0 ESE 13 15 7 8 1012.1 1011.4 0.0
06/09:00pm 28.0 28.3 16.9 51 7.0 ESE 11 13 6 7 1011.8 1011.1 0.0
06/08:30pm 29.9 30.7 16.3 43 8.5 E 7 9 4 5 1011.6 1010.9 0.0
06/08:00pm 30.1 30.7 15.8 42 8.9 ENE 7 7 4 4 1011.4 1010.7 0.0
06/07:30pm 30.7 30.7 15.2 39 9.6 E 9 11 5 6 1011.1 1010.4 0.0
06/07:00pm 31.4 31.8 15.4 38 9.9 ENE 7 9 4 5 1010.7 1010.0 0.0
06/06:30pm 32.4 31.9 15.0 35 10.8 NNE 11 13 6 7 1010.4 1009.7 0.0
06/06:00pm 34.0 33.2 14.0 30 12.3 NNE 11 17 6 9 1010.1 1009.4 0.0
06/05:30pm 34.6 34.0 13.4 27 12.9 E 9 13 5 7 1010.2 1009.5 0.0
06/05:00pm 34.9 34.0 13.7 28 13.0 E 11 17 6 9 1010.0 1009.3 0.0
06/04:30pm 34.9 34.5 14.2 28 12.8 SSE 9 11 5 6 1010.2 1009.5 0.0
06/04:00pm 34.3 34.5 14.2 29 12.4 NE 6 15 3 8 1010.3 1009.6 0.0
06/03:30pm 35.3 34.7 14.6 29 12.9 E 11 17 6 9 1010.4 1009.7 0.0
06/03:00pm 34.3 33.7 14.7 30 12.2 NNE 11 17 6 9 1010.9 1010.2 0.0
06/02:30pm 33.6 33.0 15.6 34 11.3 NNE 13 19 7 10 1011.2 1010.5 0.0
06/02:00pm 34.7 34.1 15.6 32 12.0 N 13 26 7 14 1011.8 1011.1 0.0
06/01:30pm 33.9 32.9 16.7 35 11.0 N 17 28 9 15 1012.5 1011.8 0.0
06/01:00pm 33.8 33.4 16.2 35 11.2 NW 13 24 7 13 1013.1 1012.4 0.0
06/12:30pm 32.8 32.2 16.6 37 10.3 N 15 24 8 13 1013.8 1013.1 0.0
06/12:00pm 32.1 31.4 16.4 39 9.9 NNW 15 24 8 13 1014.5 1013.7 0.0
06/11:30am 31.1 31.4 17.8 45 8.5 N 13 26 7 14 1014.9 1014.1 0.0
06/11:00am 30.5 31.1 18.6 49 7.7 N 13 17 7 9 1015.3 1014.5 0.0
06/10:30am 29.3 29.3 19.0 53 6.7 N 17 24 9 13 1015.5 1014.7 0.0
06/10:00am 29.3 28.9 19.3 55 6.5 N 20 32 11 17 1015.6 1014.8 0.0
06/09:30am 27.8 27.1 19.6 61 5.4 NNE 22 28 12 15 1015.7 1014.9 0.0
06/09:00am 26.9 26.6 19.5 64 4.8 NNE 20 26 11 14 1015.5 1014.7 4.4
06/08:30am 25.1 25.5 19.9 73 3.4 NNE 17 20 9 11 1015.7 1014.9 4.4
06/08:00am 22.9 25.0 20.2 85 1.8 ENE 9 11 5 6 1015.5 1014.7 4.4
06/07:48am 21.9 23.8 19.8 88 1.3 E 9 13 5 7 1015.4 1014.6 4.4
06/07:33am 20.7 22.7 19.9 95 0.5 E 9 13 5 7 1015.1 1014.3 4.4
06/07:30am 20.5 22.4 19.8 96 0.4 E 9 13 5 7 1015.1 1014.3 4.4
06/07:00am 19.0 20.4 18.7 98 0.2 NE 9 11 5 6 1014.8 1014.0 4.4
06/06:32am 17.9 18.8 17.6 98 0.2 NE 9 11 5 6 1014.6 1013.8 4.4
06/06:30am 17.8 18.7 17.5 98 0.2 NE 9 11 5 6 1014.5 1013.7 4.4
06/06:00am 17.8 18.6 17.3 97 0.3 NE 9 11 5 6 1014.2 1013.4 4.4
06/05:49am 17.8 18.2 17.3 97 0.3 NE 11 11 6 6 1014.0 1013.2 4.4
06/05:38am 17.7 18.1 17.2 97 0.3 NE 11 13 6 7 1013.7 1013.0 4.4
06/05:30am 17.5 17.8 17.0 97 0.3 NE 11 13 6 7 1013.5 1012.8 4.4
06/05:27am 17.5 17.8 17.0 97 0.3 NE 11 13 6 7 1013.5 1012.8 4.4
06/05:21am 17.7 18.1 17.2 97 0.3 NE 11 13 6 7 1013.4 1012.7 4.4
06/05:02am 18.2 19.2 17.7 97 0.3 NNE 9 11 5 6 1013.0 1012.3 4.4
06/05:00am 18.0 18.9 17.5 97 0.3 NNE 9 11 5 6 1013.0 1012.3 4.4
06/04:54am 17.7 18.4 17.1 96 0.4 NNE 9 11 5 6 1012.9 1012.2 4.4
06/04:45am 18.2 19.6 17.7 97 0.3 NNE 7 9 4 5 1013.0 1012.3 4.4
06/04:43am 18.1 19.4 17.6 97 0.3 NNE 7 9 4 5 1013.0 1012.3 4.4
06/04:30am 18.2 19.5 17.6 96 0.4 NNE 7 9 4 5 1013.0 1012.3 4.4
06/04:13am 18.2 19.5 17.6 96 0.4 NNE 7 9 4 5 1012.9 1012.2 4.4
06/04:00am 18.7 19.8 18.0 96 0.4 NNE 9 9 5 5 1012.8 1012.1 4.4
06/03:30am 19.8 21.8 19.1 96 0.4 NNE 7 9 4 5 1012.8 1012.1 4.4
06/03:00am 19.5 21.3 18.8 96 0.4 NNE 7 9 4 5 1012.8 1012.1 4.4
06/02:30am 19.4 20.4 18.6 95 0.5 NNE 11 13 6 7 1012.9 1012.2 4.4
06/02:00am 19.7 20.7 18.7 94 0.6 ENE 11 13 6 7 1013.4 1012.7 4.4
06/01:30am 20.1 21.6 18.8 92 0.8 ENE 9 11 5 6 1013.5 1012.8 4.4
06/01:00am 20.8 22.5 19.3 91 1.0 ENE 9 11 5 6 1013.8 1013.1 4.4
06/12:30am 20.9 22.5 19.2 90 1.1 ENE 9 11 5 6 1014.2 1013.4 4.4
06/12:00am 20.9 22.9 19.2 90 1.1 ENE 7 9 4 5 1014.5 1013.7 4.4
 
Date/Time
EST
Temp
°C
App
Temp
°C
Dew
Point
°C
Rel
Hum
%
Delta-T
°C
Wind Press
QNH
hPa
Press
MSL
hPa
Rain since
9am
mm
Dir  Spd
km/h
Gust
km/h
Spd
kts
Gust
kts
05/11:30pm 21.0 22.9 18.9 88 1.3 E 7 9 4 5 1014.8 1014.0 4.4
05/11:00pm 21.7 23.0 19.3 86 1.5 ENE 11 13 6 7 1015.0 1014.2 4.4
05/10:30pm 22.1 23.4 19.3 84 1.8 ENE 11 13 6 7 1015.1 1014.3 4.4
05/10:00pm 22.9 24.3 19.5 81 2.2 ENE 11 15 6 8 1015.1 1014.3 4.4
05/09:30pm 23.0 24.5 19.8 82 2.1 ENE 11 13 6 7 1015.0 1014.2 4.4
05/09:00pm 22.9 25.0 20.1 84 1.8 NE 9 11 5 6 1014.8 1014.0 4.4
05/08:30pm 23.9 25.5 20.0 79 2.5 ENE 11 13 6 7 1014.3 1013.5 4.4
05/08:00pm 24.1 25.8 20.2 79 2.5 E 11 13 6 7 1014.1 1013.3 4.4
05/07:30pm 25.0 27.6 20.0 74 3.3 NNE 6 9 3 5 1013.7 1013.0 4.4
05/07:00pm 25.5 28.0 20.3 73 3.4 NNE 7 9 4 5 1013.4 1012.7 4.4
05/06:30pm 26.5 28.9 20.1 68 4.2 NNE 7 11 4 6 1013.2 1012.5 4.4
05/06:00pm 27.5 29.0 19.8 63 5.0 N 11 15 6 8 1012.9 1012.2 4.4
05/05:30pm 27.9 28.6 19.7 61 5.4 NNE 15 24 8 13 1012.9 1012.2 4.4
05/05:00pm 28.3 29.3 18.7 56 6.2 N 11 15 6 8 1012.9 1012.2 4.4
05/04:30pm 28.2 28.7 19.2 58 5.8 NNE 15 20 8 11 1012.6 1011.9 4.4
05/04:00pm 27.7 27.4 19.5 61 5.3 NNE 20 24 11 13 1012.2 1011.5 4.4
05/03:30pm 27.8 26.6 20.1 63 5.1 N 26 33 14 18 1012.2 1011.5 4.4
05/03:00pm 27.4 27.2 21.2 69 4.1 N 24 32 13 17 1012.2 1011.5 4.4
05/02:30pm 27.3 26.2 21.1 69 4.1 NNE 28 33 15 18 1012.7 1012.0 4.4
05/02:00pm 26.8 25.5 21.3 72 3.7 NNE 30 39 16 21 1012.9 1012.2 4.4
05/01:30pm 27.0 25.2 21.5 72 3.7 NNE 33 41 18 22 1013.1 1012.4 4.4
05/01:00pm 25.8 23.9 21.0 75 3.2 NNE 32 43 17 23 1013.2 1012.5 4.4
05/12:30pm 25.3 23.0 20.5 75 3.2 NNE 33 43 18 23 1014.0 1013.2 4.4
05/12:00pm 24.5 23.4 21.8 85 1.8 NNE 30 35 16 19 1014.9 1014.1 4.4
05/11:30am 23.5 23.4 20.8 85 1.8 NNE 22 28 12 15 1016.0 1015.2 4.4
05/11:00am 22.2 22.5 20.8 92 0.9 NNE 20 24 11 13 1016.6 1015.8 4.2
05/10:30am 21.8 22.6 20.6 93 0.8 N 17 24 9 13 1017.0 1016.2 4.0
05/10:00am 21.4 21.5 20.0 92 0.9 N 19 24 10 13 1017.7 1017.0 3.2
05/09:30am 21.3 22.2 20.1 93 0.8 NNW 15 20 8 11 1017.8 1017.1 1.8
05/09:00am 21.0 21.8 19.8 93 0.8 NNW 15 17 8 9 1017.3 1016.6 9.0
05/08:30am 21.7 23.8 20.2 91 1.0 WNW 9 13 5 7 1017.3 1016.6 5.6
05/08:00am 22.0 25.2 19.7 87 1.5 NE 2 9 1 5 1016.8 1016.0 4.8
05/07:30am 21.6 23.2 19.9 90 1.1 ENE 11 13 6 7 1015.8 1015.0 4.8
05/07:00am 21.3 24.1 19.6 90 1.1 WNW 4 7 2 4 1015.8 1015.0 4.8
05/06:37am 21.1 22.8 19.4 90 1.1 WSW 9 13 5 7 1015.4 1014.6 4.8
05/06:30am 21.2 22.6 19.5 90 1.1 WSW 11 13 6 7 1015.4 1014.6 4.8
05/06:16am 21.3 21.5 19.4 89 1.2 NW 17 19 9 10 1015.6 1014.8 3.0
05/06:00am 21.8 23.1 19.4 86 1.5 S 11 15 6 8 1014.8 1014.0 0.0
05/05:30am 21.9 22.5 19.5 86 1.5 SSE 15 20 8 11 1014.7 1013.9 0.0
05/05:00am 22.3 23.3 18.7 80 2.3 ESE 11 15 6 8 1014.2 1013.4 0.0
05/04:30am 22.2 23.3 18.8 81 2.2 S 11 13 6 7 1013.8 1013.1 0.0
05/04:00am 21.9 21.9 18.9 83 1.9 S 17 22 9 12 1013.5 1012.8 0.0
05/03:30am 22.4 23.6 19.0 81 2.2 NNE 11 15 6 8 1013.8 1013.1 0.0
05/03:00am 22.5 23.8 18.5 78 2.5 NNE 9 13 5 7 1013.4 1012.7 0.0
05/02:30am 22.5 22.7 18.5 78 2.5 NE 15 17 8 9 1013.7 1013.0 0.0
05/02:00am 22.3 22.8 18.3 78 2.5 ENE 13 17 7 9 1014.0 1013.2 0.0
05/01:30am 21.9 23.0 17.9 78 2.5 ENE 9 13 5 7 1014.0 1013.2 0.0
05/01:00am 22.4 23.2 18.2 77 2.6 SSE 11 15 6 8 1014.4 1013.6 0.0
05/12:30am 22.5 21.8 18.7 79 2.4 S 20 24 11 13 1013.8 1013.1 0.0
05/12:00am 22.6 20.2 19.0 80 2.3 SSW 30 35 16 19 1014.3 1013.5 0.0
 
Date/Time
EST
Temp
°C
App
Temp
°C
Dew
Point
°C
Rel
Hum
%
Delta-T
°C
Wind Press
QNH
hPa
Press
MSL
hPa
Rain since
9am
mm
Dir  Spd
km/h
Gust
km/h
Spd
kts
Gust
kts
04/11:30pm 22.6 19.2 19.0 80 2.3 SSW 35 44 19 24 1014.7 1013.9 0.0
04/11:00pm 23.2 18.9 18.7 76 2.9 SSW 39 54 21 29 1014.8 1014.0 0.0
04/10:35pm 25.4 22.0 17.8 62 4.8 W 32 52 17 28 1015.0 1014.2 0.0
04/10:30pm 26.1 23.7 18.2 61 5.0 WNW 28 35 15 19 1014.6 1013.8 0.0
04/10:00pm 26.2 22.8 18.1 61 5.1 NW 33 41 18 22 1013.5 1012.8 0.0
04/09:30pm 27.5 22.7 18.5 58 5.8 NW 41 59 22 32 1012.5 1011.8 0.0
04/09:26pm 27.9 23.4 18.3 56 6.2 NW 39 59 21 32 1012.2 1011.5 0.0
04/09:20pm 28.5 25.4 18.3 54 6.5 NW 32 50 17 27 1011.8 1011.1 0.0
04/09:00pm 29.1 27.0 15.2 42 8.5 NNW 20 30 11 16 1011.4 1010.7 0.0
04/08:30pm 28.5 27.4 14.3 41 8.6 NNW 13 17 7 9 1010.8 1010.1 0.0
04/08:00pm 28.9 29.3 14.7 42 8.7 SSE 6 9 3 5 1010.4 1009.7 0.0
04/07:30pm 29.0 27.7 14.8 42 8.7 SSE 15 17 8 9 1010.3 1009.6 0.0
04/07:00pm 28.0 26.1 16.6 50 7.1 S 22 28 12 15 1009.9 1009.2 0.0
04/06:30pm 28.1 24.8 17.0 51 7.0 SSW 30 35 16 19 1009.6 1008.8 0.0
04/06:00pm 28.6 22.2 15.8 45 7.9 SW 44 57 24 31 1009.7 1008.9 0.0
04/05:49pm 30.7 28.4 16.7 43 8.8 SW 24 50 13 27 1009.6 1008.8 0.0
04/05:48pm 30.9 29.3 16.5 42 9.1 WSW 20 39 11 21 1009.6 1008.8 0.0
04/05:30pm 34.4 32.9 14.3 30 12.4 NNW 15 20 8 11 1009.0 1008.2 0.0
04/05:00pm 35.3 33.9 14.6 29 12.9 N 15 20 8 11 1009.0 1008.2 0.0
04/04:30pm 36.1 33.6 14.1 26 13.6 NNE 20 28 11 15 1008.8 1008.0 0.0
04/04:00pm 35.9 33.2 14.5 27 13.3 N 22 35 12 19 1009.2 1008.4 0.0
04/03:30pm 36.0 33.1 15.2 29 13.1 NNW 24 35 13 19 1009.5 1008.7 0.0
04/03:00pm 35.4 33.1 14.6 28 13.0 NNW 20 30 11 16 1010.0 1009.3 0.0
04/02:30pm 35.1 32.7 15.4 30 12.4 NNW 22 33 12 18 1010.3 1009.6 0.0
04/02:00pm 34.6 31.9 15.5 32 12.0 N 24 33 13 18 1010.6 1009.9 0.0
04/01:30pm 34.6 31.9 15.5 32 12.0 NNW 24 33 13 18 1011.1 1010.4 0.0
04/01:00pm 34.7 31.0 15.1 31 12.3 N 28 44 15 24 1011.4 1010.7 0.0

Other formats

Comma delimited format used in spreadsheet applications
http://www.bom.gov.au/fwo/IDQ60801/IDQ60801.94337.axf

JavaScript Object Notation format (JSON) in row-major order
http://www.bom.gov.au/fwo/IDQ60801/IDQ60801.94337.json

Data quality

Most of these data are generated automatically and are frequently updated. Quality checks on data are not normally performed. It is possible for incorrect values to appear. Refer to information at About Latest Weather Observations and please check the disclaimer before using these data.